Time;durP1;ratioP1;P1;durP2;ratioP2;P2;SDS_P1;SDS_P2;PMS_P1;PMS_P2;Temp;Humidity;BMP_temperature;BMP_pressure;BME280_temperature;BME280_humidity;BME280_pressure;Samples;Min_cycle;Max_cycle;Signal;HPM_P1;HPM_P2
2022/07/03 00:01:53;;;;;;;2.40;2.10;;;16.00;99.90;;;;;;5049932;28;20486;-70
2022/07/03 00:04:20;;;;;;;3.07;2.20;;;16.00;99.90;;;;;;5050246;28;20463;-70
2022/07/03 00:06:47;;;;;;;2.90;1.93;;;15.90;99.90;;;;;;5053712;28;20463;-68
2022/07/03 00:09:14;;;;;;;2.10;1.87;;;15.90;99.90;;;;;;5053431;28;20486;-67
2022/07/03 00:11:41;;;;;;;3.03;2.37;;;15.90;99.90;;;;;;5053681;28;20854;-68
2022/07/03 00:14:09;;;;;;;2.10;1.90;;;15.90;99.90;;;;;;5054055;28;20466;-70
2022/07/03 00:16:36;;;;;;;1.97;1.87;;;15.90;99.90;;;;;;5053596;28;20493;-70
2022/07/03 00:19:03;;;;;;;2.53;2.27;;;15.90;99.90;;;;;;5053836;28;20474;-71
2022/07/03 00:21:34;;;;;;;4.10;2.70;;;16.00;99.90;;;;;;5053398;28;20459;-68
2022/07/03 00:24:03;;;;;;;2.23;2.03;;;16.00;99.90;;;;;;5053649;28;20454;-68
2022/07/03 00:26:34;;;;;;;2.77;2.40;;;15.90;99.90;;;;;;5053581;28;20462;-68
2022/07/03 00:29:03;;;;;;;2.30;2.10;;;15.90;99.90;;;;;;5053405;28;20458;-69
2022/07/03 00:31:33;;;;;;;2.80;2.13;;;15.80;99.90;;;;;;5053239;28;20466;-66
2022/07/03 00:34:01;;;;;;;2.37;2.10;;;15.80;99.90;;;;;;5053345;28;20466;-68
2022/07/03 00:36:30;;;;;;;2.50;2.30;;;15.80;99.90;;;;;;5053475;28;20478;-69
2022/07/03 00:38:57;;;;;;;3.37;3.00;;;15.90;99.90;;;;;;5053325;28;20847;-69
2022/07/03 00:41:29;;;;;;;2.30;2.10;;;15.80;99.90;;;;;;5053202;28;20455;-68
2022/07/03 00:43:56;;;;;;;2.97;2.40;;;15.80;99.90;;;;;;5053083;28;20484;-68
2022/07/03 00:46:24;;;;;;;2.47;2.27;;;15.90;99.90;;;;;;5053261;28;20468;-68
2022/07/03 00:48:54;;;;;;;3.20;2.10;;;15.90;99.90;;;;;;5052748;28;20503;-67
2022/07/03 00:51:23;;;;;;;2.60;2.13;;;15.90;99.90;;;;;;5052585;28;20459;-68
2022/07/03 00:53:52;;;;;;;3.70;2.53;;;15.90;99.90;;;;;;5052895;28;20487;-68
2022/07/03 00:56:24;;;;;;;1.97;1.87;;;15.90;99.90;;;;;;5053022;28;20459;-68
2022/07/03 00:58:53;;;;;;;4.90;2.63;;;16.00;99.90;;;;;;5052799;28;20475;-67
2022/07/03 01:01:21;;;;;;;2.47;2.27;;;16.10;99.90;;;;;;5052472;28;20495;-67
2022/07/03 01:03:54;;;;;;;2.17;1.97;;;16.10;99.90;;;;;;5052528;28;20487;-69
2022/07/03 01:06:24;;;;;;;2.27;2.07;;;16.20;99.90;;;;;;5052819;28;20877;-68
2022/07/03 01:08:53;;;;;;;4.17;2.23;;;16.30;99.90;;;;;;5052410;28;20480;-67
2022/07/03 01:11:26;;;;;;;2.60;2.10;;;16.30;99.90;;;;;;5052501;28;20849;-68
2022/07/03 01:14:05;;;;;;;2.20;2.00;;;16.40;99.90;;;;;;5052546;28;20916;-68
2022/07/03 01:16:37;;;;;;;2.17;1.80;;;16.40;99.90;;;;;;5051419;28;20486;-68
2022/07/03 01:19:17;;;;;;;3.00;2.20;;;16.50;99.90;;;;;;5052291;28;20475;-68
2022/07/03 01:21:55;;;;;;;2.50;2.30;;;16.60;99.90;;;;;;5052276;28;20466;-67
2022/07/03 01:24:44;;;;;;;2.10;2.00;;;16.60;99.90;;;;;;5052448;28;20477;-68
2022/07/03 01:27:17;;;;;;;2.40;2.20;;;16.60;99.90;;;;;;5052526;28;20475;-68
2022/07/03 01:29:53;;;;;;;2.20;2.03;;;16.60;99.90;;;;;;5051607;28;20455;-67
2022/07/03 01:32:22;;;;;;;2.03;1.93;;;16.60;99.90;;;;;;5052137;28;20462;-68
2022/07/03 01:34:53;;;;;;;2.20;1.80;;;16.60;99.90;;;;;;5051996;28;20801;-68
2022/07/03 01:37:24;;;;;;;2.10;1.90;;;16.70;99.90;;;;;;5052239;28;20935;-68
2022/07/03 01:39:53;;;;;;;1.90;1.80;;;16.70;99.90;;;;;;5051518;28;20462;-69
2022/07/03 01:42:25;;;;;;;2.10;2.00;;;16.70;99.90;;;;;;5052117;28;20483;-68
2022/07/03 01:44:53;;;;;;;2.10;1.90;;;16.70;99.90;;;;;;5052060;28;20463;-68
2022/07/03 01:47:23;;;;;;;2.27;1.80;;;16.80;99.90;;;;;;5051895;28;20484;-68
2022/07/03 01:49:51;;;;;;;2.57;2.37;;;16.80;99.90;;;;;;5051243;28;20459;-68
2022/07/03 01:52:20;;;;;;;2.90;2.00;;;16.90;99.90;;;;;;5052387;28;20518;-68
2022/07/03 01:54:48;;;;;;;2.13;1.93;;;16.90;99.90;;;;;;5051651;28;20833;-68
2022/07/03 01:57:15;;;;;;;2.13;1.93;;;17.00;99.90;;;;;;5051777;28;20847;-68
2022/07/03 01:59:43;;;;;;;2.10;1.90;;;17.00;99.90;;;;;;5051015;28;20470;-68
2022/07/03 02:02:16;;;;;;;2.47;2.27;;;17.00;99.90;;;;;;5051669;28;20498;-68
2022/07/03 02:04:52;;;;;;;2.30;2.10;;;17.00;99.90;;;;;;5051467;28;20985;-68
2022/07/03 02:07:26;;;;;;;2.10;1.60;;;17.00;99.90;;;;;;5051594;28;20849;-68
2022/07/03 02:10:03;;;;;;;2.20;2.00;;;17.10;99.90;;;;;;5050953;28;20513;-68
2022/07/03 02:12:39;;;;;;;2.20;2.00;;;17.10;99.90;;;;;;5051610;28;20459;-68
2022/07/03 02:15:10;;;;;;;2.00;1.80;;;17.10;99.90;;;;;;5051709;28;20490;-68
2022/07/03 02:20:17;;;;;;;2.40;2.20;;;17.10;99.90;;;;;;5048662;28;20463;-74
2022/07/03 02:22:47;;;;;;;1.97;1.83;;;17.20;99.90;;;;;;5050978;28;20483;-75
2022/07/03 02:25:19;;;;;;;1.90;1.80;;;17.10;99.90;;;;;;5051063;28;20493;-75
2022/07/03 02:27:55;;;;;;;2.63;2.17;;;17.10;99.90;;;;;;5050910;28;20486;-74
2022/07/03 02:30:24;;;;;;;2.67;1.93;;;17.10;99.90;;;;;;5050383;28;20466;-75
2022/07/03 02:32:53;;;;;;;3.30;2.20;;;17.10;99.90;;;;;;5051062;28;20455;-75
2022/07/03 02:35:27;;;;;;;2.80;2.10;;;17.10;99.90;;;;;;5051293;28;20467;-72
2022/07/03 02:38:00;;;;;;;2.10;1.87;;;17.00;99.90;;;;;;5050608;28;20491;-74
2022/07/03 02:40:30;;;;;;;2.20;2.00;;;17.00;99.90;;;;;;5050144;28;20955;-74
2022/07/03 02:43:10;;;;;;;2.90;2.03;;;17.00;99.90;;;;;;5050548;28;21028;-73
2022/07/03 02:45:44;;;;;;;2.60;2.30;;;17.00;99.90;;;;;;5050989;28;20459;-74
2022/07/03 02:48:19;;;;;;;2.07;1.90;;;17.00;99.90;;;;;;5050502;28;20738;-74
2022/07/03 02:50:51;;;;;;;2.00;1.90;;;16.90;99.90;;;;;;5049176;28;20463;-74
2022/07/03 02:53:27;;;;;;;2.20;1.80;;;16.90;99.90;;;;;;5051046;28;20462;-74
2022/07/03 02:56:03;;;;;;;2.30;2.10;;;16.90;99.90;;;;;;5050545;28;20493;-74
2022/07/03 02:58:53;;;;;;;2.17;1.97;;;16.90;99.90;;;;;;5050872;28;20479;-74
2022/07/03 03:01:37;;;;;;;2.20;2.00;;;16.90;99.90;;;;;;5050285;28;20466;-74
2022/07/03 03:04:11;;;;;;;4.80;2.40;;;16.90;99.90;;;;;;5050804;28;20490;-74
2022/07/03 03:06:41;;;;;;;2.40;2.20;;;16.90;99.90;;;;;;5050487;28;20455;-74
2022/07/03 03:09:14;;;;;;;2.63;2.40;;;16.90;99.90;;;;;;5050328;28;20463;-74
2022/07/03 03:11:44;;;;;;;2.80;2.13;;;16.90;99.90;;;;;;5050786;28;20463;-73
2022/07/03 03:14:13;;;;;;;2.33;2.20;;;16.90;99.90;;;;;;5050545;28;21004;-73
2022/07/03 03:16:47;;;;;;;2.30;2.10;;;16.90;99.90;;;;;;5050684;28;20467;-74
2022/07/03 03:19:14;;;;;;;1.90;1.80;;;16.90;99.90;;;;;;5049937;28;20463;-74
2022/07/03 03:21:52;;;;;;;2.20;2.07;;;16.80;99.90;;;;;;5050548;28;20455;-74
2022/07/03 03:24:19;;;;;;;1.83;1.73;;;16.80;99.90;;;;;;5050478;28;21195;-74
2022/07/03 03:26:46;;;;;;;2.00;1.87;;;16.80;99.90;;;;;;5050154;28;20498;-74
2022/07/03 03:29:13;;;;;;;2.50;2.30;;;16.80;99.90;;;;;;5049771;28;20470;-74
2022/07/03 03:31:40;;;;;;;2.33;2.00;;;16.90;99.90;;;;;;5050255;28;20486;-74
2022/07/03 03:34:08;;;;;;;2.10;1.90;;;16.80;99.90;;;;;;5050435;28;20834;-74
2022/07/03 03:36:35;;;;;;;2.90;2.13;;;16.80;99.90;;;;;;5050259;28;20471;-74
2022/07/03 03:39:01;;;;;;;2.23;2.03;;;16.80;99.90;;;;;;5050082;28;20467;-73
2022/07/03 03:41:28;;;;;;;2.90;2.70;;;16.80;99.90;;;;;;5053489;28;21010;-74
2022/07/03 03:43:55;;;;;;;2.30;2.10;;;16.80;99.90;;;;;;5053968;28;20482;-73
2022/07/03 03:46:22;;;;;;;2.20;2.00;;;16.80;99.90;;;;;;5054268;28;20470;-74
2022/07/03 03:48:48;;;;;;;2.07;1.90;;;16.80;99.90;;;;;;5053933;28;20849;-73
2022/07/03 03:51:17;;;;;;;2.13;1.93;;;16.80;99.90;;;;;;5053691;28;20497;-72
2022/07/03 03:53:44;;;;;;;2.57;2.37;;;16.70;99.90;;;;;;5054064;28;20451;-73
2022/07/03 03:56:14;;;;;;;2.67;2.07;;;16.70;99.90;;;;;;5054162;28;20458;-72
2022/07/03 03:58:42;;;;;;;2.73;2.47;;;16.80;99.90;;;;;;5053803;28;20479;-74
2022/07/03 04:01:10;;;;;;;2.10;1.93;;;16.80;99.90;;;;;;5053366;28;20470;-73
2022/07/03 04:03:38;;;;;;;2.07;1.90;;;16.80;99.90;;;;;;5053949;28;20847;-74
2022/07/03 04:06:05;;;;;;;2.77;2.57;;;16.80;99.90;;;;;;5053977;28;20812;-73
2022/07/03 04:08:33;;;;;;;2.20;2.00;;;16.80;99.90;;;;;;5053649;28;20891;-74
2022/07/03 04:11:01;;;;;;;2.80;2.40;;;16.80;99.90;;;;;;5053390;28;20493;-73
2022/07/03 04:13:28;;;;;;;2.70;2.30;;;16.80;99.90;;;;;;5053265;28;20459;-74
2022/07/03 04:15:55;;;;;;;2.03;1.83;;;16.80;99.90;;;;;;5053478;28;20604;-74
2022/07/03 04:18:22;;;;;;;2.20;2.00;;;16.90;99.90;;;;;;5053421;28;20519;-74
2022/07/03 04:20:49;;;;;;;2.13;1.93;;;16.90;99.90;;;;;;5052992;28;20487;-73
2022/07/03 04:23:16;;;;;;;2.00;1.90;;;16.90;99.90;;;;;;5053417;28;20486;-74
2022/07/03 04:25:44;;;;;;;2.27;2.07;;;16.90;99.90;;;;;;5053380;28;20533;-74
2022/07/03 04:28:11;;;;;;;2.03;1.90;;;16.90;99.90;;;;;;5053327;28;20486;-74
2022/07/03 04:30:38;;;;;;;2.13;1.93;;;16.90;99.90;;;;;;5053472;28;20460;-73
2022/07/03 04:33:04;;;;;;;2.50;2.00;;;16.90;99.90;;;;;;5054206;28;20463;-73
2022/07/03 04:35:31;;;;;;;2.33;1.90;;;17.00;99.90;;;;;;5054400;28;20459;-74
2022/07/03 04:37:58;;;;;;;2.60;2.07;;;17.00;99.90;;;;;;5053967;28;20490;-74
2022/07/03 04:40:24;;;;;;;2.83;2.20;;;17.00;99.90;;;;;;5053389;28;20466;-74
2022/07/03 04:42:52;;;;;;;5.40;2.20;;;17.10;99.90;;;;;;5053557;28;20862;-74
2022/07/03 04:45:20;;;;;;;5.50;2.40;;;17.10;99.90;;;;;;5050255;28;20490;-74
2022/07/03 04:47:46;;;;;;;2.50;2.30;;;17.20;99.90;;;;;;5051262;28;20484;-74
2022/07/03 04:50:13;;;;;;;2.63;2.30;;;17.20;99.90;;;;;;5048315;28;20991;-74
2022/07/03 04:52:39;;;;;;;2.57;2.37;;;17.30;99.90;;;;;;5051101;28;20467;-74
2022/07/03 04:55:09;;;;;;;2.10;2.00;;;17.30;99.90;;;;;;5051538;28;20460;-75
2022/07/03 04:57:36;;;;;;;2.33;2.13;;;17.30;99.90;;;;;;5051446;28;20860;-74
2022/07/03 05:00:06;;;;;;;5.60;2.40;;;17.30;99.90;;;;;;5049438;28;20471;-75
2022/07/03 05:02:33;;;;;;;2.40;2.20;;;17.30;99.90;;;;;;5050733;28;20491;-74
2022/07/03 05:04:59;;;;;;;1.87;1.77;;;17.40;99.90;;;;;;5050654;28;20491;-75
2022/07/03 05:07:26;;;;;;;2.40;2.20;;;17.50;99.90;;;;;;5050944;28;20475;-74
2022/07/03 05:09:53;;;;;;;2.60;2.40;;;17.60;99.90;;;;;;5049415;28;20486;-74
2022/07/03 05:12:19;;;;;;;2.53;1.93;;;17.60;99.90;;;;;;5050912;28;20463;-74
2022/07/03 05:14:46;;;;;;;2.30;1.73;;;17.60;99.90;;;;;;5049491;28;20459;-75
2022/07/03 05:17:14;;;;;;;2.00;1.90;;;17.70;99.90;;;;;;5050318;28;20490;-75
2022/07/03 05:19:41;;;;;;;1.87;1.77;;;17.70;99.90;;;;;;5049847;28;20464;-75
2022/07/03 05:22:08;;;;;;;2.37;2.17;;;17.80;99.90;;;;;;5050697;28;20467;-75
2022/07/03 05:24:35;;;;;;;2.20;1.97;;;17.80;99.90;;;;;;5048989;28;20483;-74
2022/07/03 05:27:01;;;;;;;4.17;2.10;;;17.90;99.90;;;;;;5049867;28;20477;-75
2022/07/03 05:29:28;;;;;;;1.97;1.77;;;17.90;99.90;;;;;;5050032;28;20813;-75
2022/07/03 05:31:55;;;;;;;1.80;1.70;;;18.00;99.90;;;;;;5049570;28;20464;-75
2022/07/03 05:34:23;;;;;;;2.27;2.03;;;18.10;99.90;;;;;;5050369;28;20452;-74
2022/07/03 05:36:50;;;;;;;2.47;2.27;;;18.20;99.90;;;;;;5049954;28;20963;-75
2022/07/03 05:39:37;;;;;;;2.33;2.17;;;18.30;99.90;;;;;;5049599;28;20474;-75
2022/07/03 05:42:05;;;;;;;2.00;1.80;;;18.30;99.90;;;;;;5049342;28;20588;-75
2022/07/03 05:44:31;;;;;;;2.80;1.70;;;18.40;99.90;;;;;;5049972;28;20475;-75
2022/07/03 05:46:58;;;;;;;2.20;2.00;;;18.50;99.90;;;;;;5049938;28;20566;-75
2022/07/03 05:49:26;;;;;;;2.83;1.90;;;18.60;99.90;;;;;;5049336;28;20942;-74
2022/07/03 05:51:53;;;;;;;1.80;1.63;;;18.60;99.90;;;;;;5047064;28;20463;-74
2022/07/03 05:54:20;;;;;;;2.40;1.77;;;18.70;99.90;;;;;;5050290;28;20451;-75
2022/07/03 05:56:47;;;;;;;1.90;1.80;;;18.80;99.90;;;;;;5049096;28;20478;-75
2022/07/03 05:59:13;;;;;;;2.03;1.90;;;18.80;99.90;;;;;;5048383;28;20975;-73
2022/07/03 06:01:40;;;;;;;1.97;1.87;;;18.90;99.90;;;;;;5046846;28;20459;-74
2022/07/03 06:04:07;;;;;;;2.43;2.20;;;18.90;99.90;;;;;;5046794;28;20471;-75
2022/07/03 06:06:35;;;;;;;2.10;2.00;;;19.00;99.90;;;;;;5049044;28;20463;-74
2022/07/03 06:09:02;;;;;;;2.40;2.03;;;19.10;99.90;;;;;;5048018;28;20824;-74
2022/07/03 06:11:28;;;;;;;1.73;1.63;;;19.20;99.90;;;;;;5045944;28;20463;-74
2022/07/03 06:13:55;;;;;;;2.90;1.83;;;19.30;99.90;;;;;;5046537;28;20530;-75
2022/07/03 06:16:22;;;;;;;2.20;1.80;;;19.40;99.90;;;;;;5048247;28;20466;-75
2022/07/03 06:18:49;;;;;;;2.03;1.83;;;19.50;99.90;;;;;;5048848;28;20491;-75
2022/07/03 06:21:15;;;;;;;1.90;1.80;;;19.60;99.90;;;;;;5048245;28;20464;-75
2022/07/03 06:23:44;;;;;;;2.77;2.03;;;19.80;99.90;;;;;;5049044;28;20478;-74
2022/07/03 06:26:10;;;;;;;3.10;1.70;;;19.90;99.90;;;;;;5049815;28;20943;-75
2022/07/03 06:28:37;;;;;;;2.20;2.00;;;20.00;99.90;;;;;;5049412;28;20475;-74
2022/07/03 06:31:04;;;;;;;1.90;1.80;;;20.10;99.90;;;;;;5048429;28;20463;-75
2022/07/03 06:33:31;;;;;;;2.03;1.93;;;20.20;99.90;;;;;;5049480;28;20897;-75
2022/07/03 06:35:57;;;;;;;1.60;1.50;;;20.30;99.90;;;;;;5049053;28;20452;-74
2022/07/03 06:38:24;;;;;;;2.40;2.07;;;20.30;99.90;;;;;;5049314;28;20503;-74
2022/07/03 06:40:52;;;;;;;2.57;1.90;;;20.30;99.90;;;;;;5047912;28;20878;-74
2022/07/03 06:43:19;;;;;;;1.70;1.60;;;20.30;99.90;;;;;;5049079;28;20466;-75
2022/07/03 06:45:46;;;;;;;2.17;1.90;;;20.40;99.90;;;;;;5048826;28;20483;-75
2022/07/03 06:48:12;;;;;;;2.90;1.70;;;20.50;99.90;;;;;;5048610;28;20887;-75
2022/07/03 06:50:39;;;;;;;3.60;1.70;;;20.60;99.90;;;;;;5047971;28;20970;-74
2022/07/03 06:53:06;;;;;;;2.00;1.80;;;20.70;99.90;;;;;;5049014;28;20472;-75
2022/07/03 06:55:33;;;;;;;2.23;1.73;;;20.80;99.90;;;;;;5048340;28;20452;-75
2022/07/03 06:58:01;;;;;;;2.50;1.80;;;20.80;99.90;;;;;;5047944;28;20484;-74
2022/07/03 07:00:28;;;;;;;2.10;1.87;;;20.80;99.90;;;;;;5048141;28;20456;-75
2022/07/03 07:02:54;;;;;;;2.10;1.70;;;20.80;99.90;;;;;;5047922;28;20463;-74
2022/07/03 07:05:22;;;;;;;1.80;1.70;;;21.00;99.90;;;;;;5048102;28;20475;-75
2022/07/03 07:07:49;;;;;;;1.60;1.50;;;21.00;99.90;;;;;;5047751;28;20574;-75
2022/07/03 07:10:15;;;;;;;3.03;1.80;;;21.10;99.90;;;;;;5045888;28;20455;-74
2022/07/03 07:12:42;;;;;;;2.57;1.80;;;21.20;99.90;;;;;;5047975;28;20459;-74
2022/07/03 07:15:11;;;;;;;2.90;1.70;;;21.30;99.90;;;;;;5047467;28;20829;-74
2022/07/03 07:17:37;;;;;;;1.63;1.53;;;21.40;99.90;;;;;;5048166;28;20855;-74
2022/07/03 07:20:05;;;;;;;2.80;1.70;;;21.50;99.90;;;;;;5046481;28;20486;-74
2022/07/03 07:22:32;;;;;;;1.60;1.50;;;21.60;99.90;;;;;;5048749;28;20465;-74
2022/07/03 07:24:59;;;;;;;1.53;1.43;;;21.70;99.90;;;;;;5048264;28;20483;-74
2022/07/03 07:27:27;;;;;;;1.70;1.60;;;21.80;99.90;;;;;;5048208;28;21386;-74
2022/07/03 07:29:53;;;;;;;2.23;1.70;;;21.80;99.90;;;;;;5047521;28;20466;-72
2022/07/03 07:32:21;;;;;;;1.87;1.67;;;21.90;99.90;;;;;;5048377;28;20459;-74
2022/07/03 07:34:48;;;;;;;2.03;1.83;;;21.90;99.90;;;;;;5047745;28;20464;-74
2022/07/03 07:37:15;;;;;;;1.80;1.33;;;22.00;99.90;;;;;;5047932;28;20482;-74
2022/07/03 07:39:41;;;;;;;1.53;1.43;;;22.10;99.90;;;;;;5045410;28;20852;-75
2022/07/03 07:42:08;;;;;;;1.40;1.30;;;22.10;99.90;;;;;;5046116;28;20467;-75
2022/07/03 07:44:35;;;;;;;2.40;1.40;;;22.10;99.90;;;;;;5046862;28;20484;-74
2022/07/03 07:47:02;;;;;;;3.50;1.67;;;22.20;99.90;;;;;;5047528;28;21001;-75
2022/07/03 07:49:30;;;;;;;1.83;1.73;;;22.20;99.90;;;;;;5047591;28;20456;-75
2022/07/03 07:51:57;;;;;;;1.93;1.40;;;22.30;99.90;;;;;;5047932;28;20455;-74
2022/07/03 07:54:23;;;;;;;2.27;1.40;;;22.50;99.90;;;;;;5047925;28;20459;-75
2022/07/03 07:56:50;;;;;;;1.50;1.40;;;22.60;99.90;;;;;;5047236;28;20458;-75
2022/07/03 07:59:17;;;;;;;1.50;1.40;;;22.60;99.90;;;;;;5046581;28;21076;-75
2022/07/03 08:07:13;;;;;;;3.20;1.67;;;22.70;99.90;;;;;;5046179;28;20605;-75
2022/07/03 08:09:40;;;;;;;2.00;1.57;;;22.80;99.90;;;;;;5047635;28;20456;-74
2022/07/03 08:12:07;;;;;;;1.30;1.20;;;22.90;99.90;;;;;;5047749;28;20973;-75
2022/07/03 08:14:34;;;;;;;1.83;1.70;;;23.00;99.90;;;;;;5048025;28;20459;-75
2022/07/03 08:17:00;;;;;;;1.57;1.23;;;23.10;99.90;;;;;;5047441;28;20486;-74
2022/07/03 08:19:56;;;;;;;1.67;1.20;;;23.20;99.90;;;;;;5078299;22;20499;-94
2022/07/03 08:22:33;;;;;;;2.17;1.40;;;23.20;99.90;;;;;;5069563;28;20467;-94
2022/07/03 08:25:00;;;;;;;2.37;1.30;;;23.20;99.90;;;;;;5074176;28;20471;-95
2022/07/03 08:27:27;;;;;;;1.70;1.40;;;23.30;99.90;;;;;;5076307;28;20447;-95
2022/07/03 08:29:54;;;;;;;1.60;1.50;;;23.50;99.90;;;;;;5076863;28;20477;-95
2022/07/03 08:32:21;;;;;;;1.40;1.30;;;23.60;99.90;;;;;;5077778;28;20430;-94
2022/07/03 08:34:49;;;;;;;2.33;1.40;;;23.60;99.90;;;;;;5077754;28;20470;-95
2022/07/03 08:37:16;;;;;;;1.50;1.40;;;23.80;99.90;;;;;;5075573;28;20498;-96
2022/07/03 08:39:43;;;;;;;1.60;1.30;;;23.90;99.90;;;;;;5068261;28;20475;-94
2022/07/03 08:42:33;;;;;;;2.60;1.40;;;23.90;99.90;;;;;;5066583;28;20592;-94
2022/07/03 08:48:32;;;;;;;3.00;1.40;;;24.10;99.90;;;;;;5068700;28;20445;-94
2022/07/03 08:51:20;;;;;;;1.70;1.50;;;24.10;99.90;;;;;;5074337;28;20509;-95
2022/07/03 08:53:49;;;;;;;2.73;1.17;;;24.20;99.90;;;;;;5072812;28;20538;-95
2022/07/03 08:56:27;;;;;;;2.17;1.43;;;24.30;99.90;;;;;;5076878;28;20454;-95
2022/07/03 08:58:56;;;;;;;2.60;1.40;;;24.40;99.90;;;;;;5075608;28;20489;-95
2022/07/03 09:01:24;;;;;;;1.40;1.30;;;24.40;99.90;;;;;;5073420;28;20479;-93
2022/07/03 09:03:53;;;;;;;1.33;1.17;;;24.50;99.90;;;;;;5071701;28;20975;-95
2022/07/03 09:06:22;;;;;;;1.30;1.13;;;24.60;99.90;;;;;;5072494;28;20495;-95
2022/07/03 09:08:50;;;;;;;1.60;1.50;;;24.60;99.90;;;;;;5075339;28;20476;-95
2022/07/03 09:11:18;;;;;;;2.60;1.50;;;24.70;99.90;;;;;;5068776;28;20462;-95
2022/07/03 09:13:45;;;;;;;1.77;1.30;;;24.80;99.90;;;;;;5077209;28;20447;-95
2022/07/03 09:16:25;;;;;;;1.20;1.10;;;24.80;98.90;;;;;;5072202;28;20989;-95
2022/07/03 09:18:52;;;;;;;1.80;1.20;;;24.90;99.60;;;;;;5073949;23;20491;-69
2022/07/03 09:21:20;;;;;;;1.20;1.10;;;25.00;98.90;;;;;;5049723;28;20847;-69
2022/07/03 09:23:48;;;;;;;1.87;1.20;;;25.00;99.60;;;;;;5050444;28;20452;-70
2022/07/03 09:26:16;;;;;;;1.23;1.10;;;25.10;98.60;;;;;;5049541;28;20511;-69
2022/07/03 09:28:46;;;;;;;1.30;1.20;;;25.20;97.00;;;;;;5050097;28;20475;-70
2022/07/03 09:31:14;;;;;;;1.63;1.20;;;25.30;99.00;;;;;;5049740;28;20456;-70
2022/07/03 09:33:58;;;;;;;1.30;1.20;;;25.40;98.70;;;;;;5050323;28;20664;-70
2022/07/03 09:36:39;;;;;;;2.10;1.30;;;25.40;97.50;;;;;;5050547;28;20817;-69
2022/07/03 09:39:19;;;;;;;1.30;1.20;;;25.50;99.00;;;;;;5049208;28;20463;-69
2022/07/03 09:41:54;;;;;;;1.30;1.20;;;25.70;99.50;;;;;;5049499;28;20879;-68
2022/07/03 09:44:34;;;;;;;1.50;1.40;;;25.80;99.90;;;;;;5050988;28;20463;-70
2022/07/03 09:47:12;;;;;;;1.60;1.30;;;25.90;98.80;;;;;;5049710;28;20467;-68
2022/07/03 09:49:47;;;;;;;2.50;1.30;;;26.00;99.90;;;;;;5047258;28;20466;-69
2022/07/03 09:52:28;;;;;;;1.13;1.03;;;26.20;98.40;;;;;;5049819;28;20466;-70
2022/07/03 09:54:56;;;;;;;5.07;1.50;;;26.20;99.90;;;;;;5048183;28;20455;-67
2022/07/03 09:57:25;;;;;;;1.97;1.40;;;26.30;99.90;;;;;;5048155;28;20519;-68
2022/07/03 10:00:13;;;;;;;1.20;1.07;;;26.40;99.90;;;;;;5049083;28;20470;-70
2022/07/03 10:02:53;;;;;;;1.60;1.50;;;26.50;99.00;;;;;;5049510;28;20459;-67
2022/07/03 10:05:21;;;;;;;1.70;1.30;;;26.60;99.10;;;;;;5049625;28;20486;-66
2022/07/03 10:07:53;;;;;;;2.03;1.40;;;26.70;99.10;;;;;;5048737;28;20541;-67
2022/07/03 10:10:22;;;;;;;1.63;1.43;;;26.70;99.80;;;;;;5044766;28;20487;-67
2022/07/03 10:12:51;;;;;;;1.40;1.30;;;26.80;98.40;;;;;;5049317;28;20473;-66
2022/07/03 10:15:18;;;;;;;1.93;1.30;;;26.80;99.00;;;;;;5049390;28;20483;-67
2022/07/03 10:17:48;;;;;;;1.40;1.30;;;26.80;98.50;;;;;;5048800;28;20475;-67
2022/07/03 10:20:16;;;;;;;1.73;1.63;;;26.70;98.30;;;;;;5048692;28;20463;-67
2022/07/03 10:22:46;;;;;;;1.37;1.27;;;26.80;97.30;;;;;;5049431;28;20459;-66
2022/07/03 10:25:14;;;;;;;1.73;1.33;;;26.90;96.50;;;;;;5049296;28;20651;-67
2022/07/03 10:27:42;;;;;;;1.47;1.10;;;26.90;96.80;;;;;;5048996;28;20834;-68
2022/07/03 10:30:10;;;;;;;1.83;1.13;;;26.90;98.00;;;;;;5049431;28;20487;-65
2022/07/03 10:32:39;;;;;;;2.27;1.53;;;26.90;97.50;;;;;;5048651;28;20473;-66
2022/07/03 10:35:07;;;;;;;1.93;1.40;;;27.00;97.00;;;;;;5049246;28;20495;-66
2022/07/03 10:37:44;;;;;;;1.20;1.10;;;27.10;96.70;;;;;;5048033;28;20483;-66
2022/07/03 10:46:13;;;;;;;2.27;1.70;;;27.60;99.90;;;;;;5048924;28;20512;-67
2022/07/03 10:48:56;;;;;;;2.37;1.50;;;27.80;98.80;;;;;;5047836;28;20482;-66
2022/07/03 10:51:23;;;;;;;1.60;1.50;;;28.00;99.00;;;;;;5048333;28;20463;-67
2022/07/03 10:53:50;;;;;;;1.73;1.53;;;28.00;95.90;;;;;;5048868;28;20507;-67
2022/07/03 10:56:17;;;;;;;2.10;2.00;;;28.00;95.80;;;;;;5048881;28;20862;-67
2022/07/03 10:58:58;;;;;;;1.20;1.10;;;28.00;96.40;;;;;;5047742;28;20853;-67
2022/07/03 11:01:28;;;;;;;1.20;1.10;;;27.90;96.30;;;;;;5048322;28;20464;-67
2022/07/03 11:03:56;;;;;;;1.90;1.13;;;28.00;96.80;;;;;;5048485;28;20490;-67
2022/07/03 11:07:01;;;;;;;2.73;1.90;;;28.00;97.10;;;;;;5048632;28;20533;-67
2022/07/03 11:09:28;;;;;;;2.43;1.50;;;28.00;95.10;;;;;;5046333;28;20526;-66
2022/07/03 11:11:57;;;;;;;1.80;1.70;;;28.10;96.80;;;;;;5048423;28;20474;-67
2022/07/03 11:14:27;;;;;;;1.43;1.33;;;28.20;97.00;;;;;;5048545;28;20467;-69
2022/07/03 11:17:18;;;;;;;2.90;1.67;;;28.40;96.50;;;;;;5047918;28;20456;-70
2022/07/03 11:20:23;;;;;;;11.90;10.90;;;28.50;96.70;;;;;;5046878;28;20493;-67
2022/07/03 11:22:41;;;;;;;2.20;1.60;;;28.50;96.40;;;;;;5048186;28;20440;-67
2022/07/03 11:25:09;;;;;;;3.10;1.40;;;28.80;97.40;;;;;;5048353;28;20554;-67
2022/07/03 11:27:36;;;;;;;1.73;1.50;;;28.90;96.40;;;;;;5047853;28;20477;-66
2022/07/03 11:30:05;;;;;;;1.20;1.10;;;29.10;97.10;;;;;;5047484;28;20462;-70
2022/07/03 11:32:57;;;;;;;1.70;1.40;;;29.10;95.80;;;;;;5048316;28;20867;-69
2022/07/03 11:35:51;;;;;;;1.30;1.10;;;29.00;94.70;;;;;;5048401;28;20461;-69
2022/07/03 11:38:21;;;;;;;1.43;1.33;;;29.10;96.30;;;;;;5048138;28;20888;-68
2022/07/03 11:40:50;;;;;;;1.77;1.43;;;29.00;97.20;;;;;;5047350;28;20447;-68
2022/07/03 11:43:17;;;;;;;1.73;1.13;;;29.10;97.20;;;;;;5048462;28;20458;-67
2022/07/03 11:45:47;;;;;;;1.63;1.40;;;29.30;98.60;;;;;;5048402;28;20481;-66
2022/07/03 11:48:16;;;;;;;1.30;1.20;;;29.40;97.80;;;;;;5048075;28;20481;-67
2022/07/03 11:50:45;;;;;;;1.50;1.33;;;29.40;95.40;;;;;;5048183;28;20519;-68
2022/07/03 11:53:26;;;;;;;1.60;1.30;;;29.50;94.40;;;;;;5048223;28;20954;-68
2022/07/03 11:55:55;;;;;;;1.63;1.33;;;29.40;94.10;;;;;;5047793;28;20861;-68
2022/07/03 11:58:22;;;;;;;1.50;1.27;;;29.40;94.40;;;;;;5047931;28;20481;-67
2022/07/03 12:00:51;;;;;;;1.43;1.30;;;29.50;96.40;;;;;;5048035;28;20949;-68
2022/07/03 12:03:23;;;;;;;1.53;1.30;;;29.50;93.20;;;;;;5052255;28;20473;-68
2022/07/03 12:05:57;;;;;;;1.43;1.23;;;29.50;94.70;;;;;;5051143;28;20523;-68
2022/07/03 12:08:26;;;;;;;1.50;1.40;;;29.50;94.60;;;;;;5051831;28;20478;-67
2022/07/03 12:10:58;;;;;;;1.30;1.03;;;29.40;93.30;;;;;;5050735;28;20468;-67
2022/07/03 12:13:26;;;;;;;3.83;1.23;;;29.00;92.20;;;;;;5051577;28;20480;-67
2022/07/03 12:16:01;;;;;;;1.87;1.43;;;28.70;92.60;;;;;;5050592;28;20559;-67
2022/07/03 12:18:28;;;;;;;2.00;1.37;;;28.60;95.70;;;;;;5051283;28;20481;-68
2022/07/03 12:20:54;;;;;;;2.67;1.10;;;28.80;93.50;;;;;;5051076;28;20473;-66
2022/07/03 12:23:21;;;;;;;1.50;1.40;;;29.00;91.80;;;;;;5051863;28;20465;-67
2022/07/03 12:25:48;;;;;;;1.53;1.43;;;29.00;93.40;;;;;;5051152;28;20488;-67
2022/07/03 12:28:15;;;;;;;1.90;1.00;;;29.00;92.70;;;;;;5050119;28;20492;-66
2022/07/03 12:30:42;;;;;;;1.30;1.00;;;28.90;91.40;;;;;;5050613;28;20466;-68
2022/07/03 12:33:10;;;;;;;2.33;1.40;;;28.90;91.20;;;;;;5051496;28;20468;-68
2022/07/03 12:35:36;;;;;;;2.47;1.43;;;28.90;91.50;;;;;;5051005;28;20461;-68
2022/07/03 12:38:03;;;;;;;2.00;1.37;;;29.20;94.10;;;;;;5050501;28;20484;-69
2022/07/03 12:40:30;;;;;;;2.10;1.17;;;29.40;95.00;;;;;;5047325;28;20460;-68
2022/07/03 12:42:58;;;;;;;1.40;1.23;;;29.70;92.30;;;;;;5047932;28;20811;-70
2022/07/03 12:45:27;;;;;;;2.03;1.40;;;29.90;92.80;;;;;;5050923;28;20831;-68
2022/07/03 12:48:00;;;;;;;1.63;0.97;;;30.00;90.20;;;;;;5050821;28;20843;-68
2022/07/03 12:50:45;;;;;;;1.50;1.40;;;29.40;90.20;;;;;;5050625;28;20459;-68
2022/07/03 12:53:12;;;;;;;1.63;1.40;;;29.40;92.30;;;;;;5050568;28;20970;-68
2022/07/03 12:55:45;;;;;;;1.50;1.30;;;29.30;90.00;;;;;;5050996;28;20450;-67
2022/07/03 13:00:57;;;;;;;1.80;1.10;;;29.20;90.00;;;;;;5050221;28;20597;-67
2022/07/03 13:03:28;;;;;;;1.30;1.13;;;29.20;90.90;;;;;;5050426;28;20456;-68
2022/07/03 13:05:57;;;;;;;1.50;1.40;;;29.40;91.20;;;;;;5050313;28;20489;-69
2022/07/03 13:08:23;;;;;;;1.60;1.20;;;29.60;92.00;;;;;;5050035;28;20480;-68
2022/07/03 13:10:57;;;;;;;1.77;1.30;;;29.80;91.50;;;;;;5049934;28;20460;-68
2022/07/03 13:13:24;;;;;;;1.20;1.10;;;30.00;92.90;;;;;;5050365;28;20454;-68
2022/07/03 13:15:51;;;;;;;5.00;2.37;;;30.10;92.40;;;;;;5050844;28;20464;-69
2022/07/03 13:18:18;;;;;;;2.50;1.70;;;30.20;93.60;;;;;;5050398;28;20488;-68
2022/07/03 13:20:45;;;;;;;1.50;1.10;;;30.30;91.90;;;;;;5050311;28;20885;-67
2022/07/03 13:23:13;;;;;;;1.20;1.10;;;30.40;92.60;;;;;;5050373;28;20943;-69